Time;durP1;ratioP1;P1;durP2;ratioP2;P2;SDS_P1;SDS_P2;PMS_P1;PMS_P2;Temp;Humidity;BMP_temperature;BMP_pressure;BME280_temperature;BME280_humidity;BME280_pressure;Samples;Min_cycle;Max_cycle;Signal;HPM_P1;HPM_P2
2022/07/21 00:00:25;;;;;;;16.10;13.90;;;27.00;65.50;;;;;;5030481;28;20181;-44
2022/07/21 00:02:51;;;;;;;15.77;14.17;;;27.00;65.10;;;;;;5029561;28;20798;-46
2022/07/21 00:05:17;;;;;;;15.90;14.37;;;27.00;65.20;;;;;;5030596;28;20424;-48
2022/07/21 00:07:43;;;;;;;16.53;14.43;;;27.00;65.70;;;;;;5029558;28;20525;-45
2022/07/21 00:10:10;;;;;;;16.20;14.80;;;27.00;65.80;;;;;;5029866;28;20498;-45
2022/07/21 00:12:36;;;;;;;16.53;15.07;;;26.90;66.00;;;;;;5029922;28;20424;-44
2022/07/21 00:15:03;;;;;;;15.70;14.50;;;26.90;66.10;;;;;;5030129;28;20491;-45
2022/07/21 00:17:28;;;;;;;15.93;14.50;;;26.90;66.00;;;;;;5030401;28;20284;-45
2022/07/21 00:19:54;;;;;;;17.73;16.13;;;26.90;66.20;;;;;;5029737;28;20507;-47
2022/07/21 00:22:20;;;;;;;17.20;15.80;;;26.80;66.70;;;;;;5028641;28;20272;-44
2022/07/21 00:24:45;;;;;;;19.10;17.40;;;26.80;67.00;;;;;;5029494;28;20204;-47
2022/07/21 00:27:11;;;;;;;19.90;15.37;;;26.80;67.40;;;;;;5030204;28;20240;-45
2022/07/21 00:29:37;;;;;;;16.70;15.13;;;26.80;67.60;;;;;;5029854;28;20207;-48
2022/07/21 00:32:04;;;;;;;17.47;15.97;;;26.80;67.60;;;;;;5030289;28;20668;-44
2022/07/21 00:34:29;;;;;;;16.10;14.50;;;26.80;67.50;;;;;;5029123;28;20567;-47
2022/07/21 00:36:55;;;;;;;16.90;15.50;;;26.80;67.40;;;;;;5029908;28;20470;-44
2022/07/21 00:39:20;;;;;;;17.70;16.00;;;26.50;68.40;;;;;;5029790;28;20194;-43
2022/07/21 00:41:46;;;;;;;17.57;15.87;;;26.30;68.90;;;;;;5030128;28;21011;-48
2022/07/21 00:44:26;;;;;;;15.53;14.33;;;26.30;68.90;;;;;;5028337;28;20193;-44
2022/07/21 00:46:52;;;;;;;17.13;15.47;;;26.40;68.50;;;;;;5026155;28;20196;-46
2022/07/21 00:49:19;;;;;;;17.33;15.67;;;26.40;68.20;;;;;;5028189;28;20911;-45
2022/07/21 00:51:45;;;;;;;17.17;15.40;;;26.40;68.00;;;;;;5030187;28;20428;-48
2022/07/21 00:54:12;;;;;;;15.90;14.50;;;26.30;67.90;;;;;;5028862;28;20448;-45
2022/07/21 00:56:38;;;;;;;15.57;14.27;;;26.30;68.20;;;;;;5030222;28;20938;-44
2022/07/21 00:59:04;;;;;;;17.40;15.87;;;26.40;68.00;;;;;;5029660;28;20451;-48
2022/07/21 01:01:29;;;;;;;18.47;16.93;;;26.40;67.70;;;;;;5030021;28;20452;-44
2022/07/21 01:03:55;;;;;;;19.10;17.30;;;26.50;67.90;;;;;;5029192;28;20198;-44
2022/07/21 01:06:23;;;;;;;16.63;15.43;;;26.50;68.00;;;;;;5030147;28;20189;-45
2022/07/21 01:08:50;;;;;;;16.03;14.73;;;26.50;68.00;;;;;;5029406;28;20201;-44
2022/07/21 01:11:16;;;;;;;17.07;15.73;;;26.50;67.90;;;;;;5029819;28;20810;-43
2022/07/21 01:13:43;;;;;;;16.67;15.10;;;26.50;67.80;;;;;;5029269;28;20465;-48
2022/07/21 01:16:09;;;;;;;15.90;14.60;;;26.50;67.70;;;;;;5028291;28;20480;-45
2022/07/21 01:18:35;;;;;;;18.40;16.70;;;26.50;67.90;;;;;;5029447;28;20443;-45
2022/07/21 01:21:08;;;;;;;17.73;16.23;;;26.50;67.90;;;;;;5031003;28;20420;-47
2022/07/21 01:23:33;;;;;;;17.87;16.10;;;26.60;67.90;;;;;;5031102;28;20446;-44
2022/07/21 01:25:59;;;;;;;17.60;16.10;;;26.50;67.90;;;;;;5033318;28;20420;-45
2022/07/21 01:28:25;;;;;;;18.77;17.07;;;26.50;68.00;;;;;;5032963;28;20255;-45
2022/07/21 01:30:53;;;;;;;18.37;16.57;;;26.50;68.10;;;;;;5033374;28;20212;-43
2022/07/21 01:33:19;;;;;;;19.23;17.63;;;26.50;68.20;;;;;;5032563;28;20185;-46
2022/07/21 01:35:45;;;;;;;17.67;15.97;;;26.50;68.20;;;;;;5033108;28;20488;-47
2022/07/21 01:41:28;;;;;;;17.83;16.20;;;26.50;68.40;;;;;;5032475;28;20225;-45
2022/07/21 01:43:43;;;;;;;18.53;17.03;;;26.60;68.30;;;;;;5032163;28;20519;-44
2022/07/21 01:46:13;;;;;;;18.13;16.40;;;26.60;68.50;;;;;;5026333;28;21003;-44
2022/07/21 01:48:43;;;;;;;19.93;18.10;;;26.60;68.60;;;;;;5032417;28;20193;-44
2022/07/21 01:51:09;;;;;;;17.43;15.83;;;26.60;68.50;;;;;;5032949;28;20984;-44
2022/07/21 01:53:34;;;;;;;17.77;16.17;;;26.60;68.60;;;;;;5031656;28;20424;-44
2022/07/21 01:56:00;;;;;;;18.30;16.67;;;26.50;68.50;;;;;;5032791;28;20335;-44
2022/07/21 01:58:26;;;;;;;18.23;16.63;;;26.50;68.60;;;;;;5032105;28;20189;-44
2022/07/21 02:00:51;;;;;;;18.47;16.57;;;26.50;68.50;;;;;;5032715;28;20223;-44
2022/07/21 02:03:17;;;;;;;19.10;17.53;;;26.50;68.20;;;;;;5031630;28;20224;-47
2022/07/21 02:05:43;;;;;;;19.00;17.20;;;26.40;68.50;;;;;;5032510;28;20189;-47
2022/07/21 02:08:08;;;;;;;21.17;15.87;;;26.40;68.80;;;;;;5031003;28;20210;-44
2022/07/21 02:10:35;;;;;;;18.90;17.10;;;26.40;68.70;;;;;;5032046;28;20197;-44
2022/07/21 02:13:02;;;;;;;18.03;16.43;;;26.50;68.60;;;;;;5031062;28;20662;-44
2022/07/21 02:15:28;;;;;;;18.30;16.43;;;26.50;68.50;;;;;;5032442;28;20482;-45
2022/07/21 02:17:54;;;;;;;18.27;16.40;;;26.60;68.70;;;;;;5031709;28;20550;-43
2022/07/21 02:20:20;;;;;;;17.03;15.73;;;26.60;68.60;;;;;;5032481;28;20251;-46
2022/07/21 02:22:47;;;;;;;19.53;17.77;;;26.60;68.40;;;;;;5031204;28;20253;-44
2022/07/21 02:25:13;;;;;;;18.67;17.03;;;26.60;68.50;;;;;;5032261;28;20475;-46
2022/07/21 02:27:39;;;;;;;19.70;17.67;;;26.60;68.60;;;;;;5031706;28;20475;-44
2022/07/21 02:30:05;;;;;;;19.40;17.70;;;26.60;68.80;;;;;;5031961;28;20470;-45
2022/07/21 02:32:31;;;;;;;18.40;16.53;;;26.60;68.70;;;;;;5030708;28;20431;-44
2022/07/21 02:34:56;;;;;;;17.77;16.27;;;26.60;68.70;;;;;;5031135;28;20484;-43
2022/07/21 02:37:22;;;;;;;18.23;16.37;;;26.50;68.90;;;;;;5030758;28;20236;-44
2022/07/21 02:39:48;;;;;;;18.60;16.90;;;26.50;69.50;;;;;;5031196;28;20285;-44
2022/07/21 02:42:14;;;;;;;19.57;17.87;;;26.40;70.00;;;;;;5031955;28;20196;-43
2022/07/21 02:44:40;;;;;;;19.30;17.43;;;26.20;70.60;;;;;;5026451;28;20437;-43
2022/07/21 02:47:06;;;;;;;19.97;18.17;;;26.00;71.80;;;;;;5029389;28;20221;-46
2022/07/21 02:49:32;;;;;;;19.50;17.90;;;25.60;73.00;;;;;;5031053;28;20420;-43
2022/07/21 02:51:58;;;;;;;19.57;17.13;;;25.30;75.00;;;;;;5031679;28;20189;-44
2022/07/21 02:54:23;;;;;;;20.97;19.17;;;25.20;75.80;;;;;;5030681;28;20641;-45
2022/07/21 02:56:49;;;;;;;19.97;18.17;;;25.40;75.30;;;;;;5031536;28;20193;-43
2022/07/21 02:59:14;;;;;;;18.83;17.23;;;25.50;75.20;;;;;;5030925;28;20255;-44
2022/07/21 03:01:40;;;;;;;19.57;18.00;;;25.50;74.90;;;;;;5031521;28;20193;-45
2022/07/21 03:04:06;;;;;;;20.40;18.63;;;25.60;74.80;;;;;;5029065;28;20247;-43
2022/07/21 03:06:32;;;;;;;19.03;17.33;;;25.60;74.50;;;;;;5031501;28;20275;-44
2022/07/21 03:08:58;;;;;;;19.00;17.20;;;25.70;74.00;;;;;;5030761;28;20516;-43
2022/07/21 03:11:23;;;;;;;19.43;17.53;;;25.80;73.50;;;;;;5031275;28;20201;-43
2022/07/21 03:13:49;;;;;;;19.57;17.87;;;25.70;73.60;;;;;;5030466;28;20209;-44
2022/07/21 03:16:15;;;;;;;20.03;18.03;;;25.50;74.30;;;;;;5031120;28;20676;-43
2022/07/21 03:18:41;;;;;;;18.50;17.00;;;25.50;75.00;;;;;;5030775;28;20983;-44
2022/07/21 03:21:07;;;;;;;18.87;17.20;;;25.60;75.00;;;;;;5031189;28;20243;-43
2022/07/21 03:23:33;;;;;;;19.37;17.67;;;25.50;75.10;;;;;;5030446;28;20641;-44
2022/07/21 03:25:58;;;;;;;18.37;16.87;;;25.50;75.20;;;;;;5030905;28;20424;-44
2022/07/21 03:28:24;;;;;;;18.83;17.30;;;25.40;75.60;;;;;;5030468;28;20197;-44
2022/07/21 03:30:50;;;;;;;20.13;18.33;;;25.40;75.90;;;;;;5029329;28;20197;-44
2022/07/21 03:33:15;;;;;;;19.23;17.60;;;25.40;75.70;;;;;;5030202;28;20192;-44
2022/07/21 03:35:41;;;;;;;20.30;18.43;;;25.30;76.90;;;;;;5030653;28;20260;-44
2022/07/21 03:38:07;;;;;;;20.60;18.80;;;25.10;76.70;;;;;;5030198;28;20683;-44
2022/07/21 03:40:36;;;;;;;21.43;19.30;;;24.90;77.70;;;;;;5029589;28;20541;-44
2022/07/21 03:43:05;;;;;;;19.57;17.80;;;24.70;79.10;;;;;;5029812;28;20443;-43
2022/07/21 03:45:33;;;;;;;18.07;16.43;;;24.70;79.60;;;;;;5026525;28;20428;-43
2022/07/21 03:48:00;;;;;;;17.20;15.50;;;24.90;78.70;;;;;;5030039;28;20511;-44
2022/07/21 03:50:27;;;;;;;15.07;13.67;;;24.80;77.60;;;;;;5030358;28;20943;-44
2022/07/21 03:52:53;;;;;;;15.50;13.93;;;24.80;77.00;;;;;;5029304;28;20993;-43
2022/07/21 03:55:20;;;;;;;15.47;14.00;;;24.90;76.10;;;;;;5030391;28;20578;-43
2022/07/21 03:57:57;;;;;;;14.33;13.03;;;25.10;75.20;;;;;;5028318;28;20247;-44
2022/07/21 04:00:25;;;;;;;14.80;13.60;;;25.30;74.40;;;;;;5030342;28;20493;-43
2022/07/21 04:02:51;;;;;;;16.07;14.67;;;25.50;73.60;;;;;;5029406;28;20819;-43
2022/07/21 04:05:18;;;;;;;15.90;14.53;;;25.60;73.20;;;;;;5030660;28;20432;-43
2022/07/21 04:07:45;;;;;;;14.93;13.60;;;25.80;73.40;;;;;;5029878;28;20185;-44
2022/07/21 04:10:13;;;;;;;17.33;15.93;;;25.80;73.20;;;;;;5030334;28;20849;-44
2022/07/21 04:12:39;;;;;;;18.90;17.00;;;25.80;72.90;;;;;;5029595;28;20428;-45
2022/07/21 04:15:07;;;;;;;20.33;17.53;;;25.90;73.00;;;;;;5030370;28;20471;-44
2022/07/21 04:17:33;;;;;;;18.47;16.87;;;25.90;73.00;;;;;;5029869;28;20574;-44
2022/07/21 04:19:59;;;;;;;20.70;19.00;;;26.00;72.80;;;;;;5030023;28;20489;-44
2022/07/21 04:22:25;;;;;;;19.70;17.97;;;26.00;72.80;;;;;;5029806;28;20428;-44
2022/07/21 04:24:51;;;;;;;18.87;17.00;;;26.10;72.70;;;;;;5028018;28;20517;-43
2022/07/21 04:27:16;;;;;;;19.10;17.50;;;26.10;72.50;;;;;;5029889;28;20247;-45
2022/07/21 04:29:42;;;;;;;18.60;17.10;;;26.10;72.50;;;;;;5029658;28;20200;-44
2022/07/21 04:32:07;;;;;;;20.87;18.90;;;26.10;72.30;;;;;;5030348;28;20200;-44
2022/07/21 04:34:33;;;;;;;19.90;18.20;;;26.20;72.40;;;;;;5029426;28;20673;-43
2022/07/21 04:36:59;;;;;;;20.73;18.67;;;26.20;72.30;;;;;;5029818;28;20271;-44
2022/07/21 04:39:24;;;;;;;19.27;17.77;;;26.30;72.30;;;;;;5029805;28;20225;-44
2022/07/21 04:41:50;;;;;;;19.17;17.50;;;26.30;72.50;;;;;;5030049;28;20671;-44
2022/07/21 04:44:15;;;;;;;19.47;17.77;;;26.30;72.40;;;;;;5027366;28;20264;-43
2022/07/21 04:46:41;;;;;;;20.60;18.80;;;26.30;72.30;;;;;;5024198;28;20201;-44
2022/07/21 04:49:07;;;;;;;19.47;17.70;;;26.30;72.20;;;;;;5029593;28;20193;-44
2022/07/21 04:51:32;;;;;;;17.87;16.27;;;26.40;72.20;;;;;;5028434;28;20236;-43
2022/07/21 04:53:58;;;;;;;20.10;18.20;;;26.40;72.00;;;;;;5028841;28;20196;-43
2022/07/21 04:56:23;;;;;;;19.57;17.67;;;26.40;71.50;;;;;;5031597;28;20275;-44
2022/07/21 04:58:49;;;;;;;18.73;17.03;;;26.40;71.40;;;;;;5033161;28;20718;-44
2022/07/21 05:01:17;;;;;;;19.13;17.47;;;26.50;71.40;;;;;;5033616;28;20212;-43
2022/07/21 05:03:43;;;;;;;17.43;15.83;;;26.50;71.10;;;;;;5032497;28;20923;-44
2022/07/21 05:06:09;;;;;;;17.93;16.43;;;26.50;70.80;;;;;;5033701;28;20515;-45
2022/07/21 05:08:34;;;;;;;19.27;17.40;;;26.50;70.30;;;;;;5033325;28;20616;-44
2022/07/21 05:11:00;;;;;;;17.83;16.07;;;26.50;70.30;;;;;;5033462;28;20212;-44
2022/07/21 05:13:26;;;;;;;19.43;17.53;;;26.50;70.40;;;;;;5032290;28;20189;-44
2022/07/21 05:15:51;;;;;;;17.43;15.93;;;26.50;70.70;;;;;;5033358;28;20240;-44
2022/07/21 05:18:17;;;;;;;19.07;17.30;;;26.60;70.90;;;;;;5031289;28;20197;-45
2022/07/21 05:20:43;;;;;;;18.77;17.10;;;26.60;70.90;;;;;;5033168;28;20201;-44
2022/07/21 05:23:08;;;;;;;17.93;16.13;;;26.60;70.70;;;;;;5032345;28;20207;-44
2022/07/21 05:25:35;;;;;;;17.83;16.10;;;26.60;70.60;;;;;;5032961;28;20194;-44
2022/07/21 05:28:01;;;;;;;15.30;14.00;;;26.60;70.60;;;;;;5032919;28;20208;-43
2022/07/21 05:30:27;;;;;;;17.63;15.70;;;26.70;70.60;;;;;;5032967;28;20427;-45
2022/07/21 05:32:52;;;;;;;18.07;16.30;;;26.70;70.40;;;;;;5032105;28;20556;-44
2022/07/21 05:35:18;;;;;;;17.53;15.37;;;26.80;70.50;;;;;;5032962;28;20224;-44
2022/07/21 05:37:45;;;;;;;16.00;14.50;;;26.80;69.60;;;;;;5032260;28;20240;-45
2022/07/21 05:40:11;;;;;;;16.00;14.47;;;26.80;69.00;;;;;;5033087;28;20247;-44
2022/07/21 05:42:39;;;;;;;17.00;15.40;;;26.90;68.50;;;;;;5032341;28;20475;-44
2022/07/21 05:45:06;;;;;;;16.30;14.80;;;26.90;68.10;;;;;;5024190;28;20440;-44
2022/07/21 05:47:32;;;;;;;16.57;15.13;;;27.00;67.90;;;;;;5032375;28;20416;-44
2022/07/21 05:49:58;;;;;;;17.40;15.90;;;27.00;67.30;;;;;;5032667;28;20420;-44
2022/07/21 05:52:24;;;;;;;17.33;15.83;;;27.10;67.40;;;;;;5032504;28;20197;-45
2022/07/21 05:54:50;;;;;;;16.27;14.80;;;27.10;67.40;;;;;;5031878;28;21061;-44
2022/07/21 05:57:17;;;;;;;15.40;14.10;;;27.10;66.80;;;;;;5032627;28;20459;-45
2022/07/21 05:59:42;;;;;;;16.27;14.90;;;27.20;66.00;;;;;;5031888;28;20201;-44
2022/07/21 06:02:08;;;;;;;16.53;15.00;;;27.20;65.80;;;;;;5032223;28;20431;-43
2022/07/21 06:04:34;;;;;;;14.80;13.27;;;27.30;65.40;;;;;;5031671;28;20198;-45
2022/07/21 06:06:59;;;;;;;15.33;14.13;;;27.40;64.80;;;;;;5031734;28;20204;-45
2022/07/21 06:09:25;;;;;;;15.83;14.37;;;27.40;64.50;;;;;;5031463;28;20543;-45
2022/07/21 06:11:50;;;;;;;15.73;14.40;;;27.50;64.00;;;;;;5030610;28;20194;-44
2022/07/21 06:14:16;;;;;;;15.17;13.77;;;27.50;63.60;;;;;;5031206;28;20713;-45
2022/07/21 06:16:41;;;;;;;15.23;13.83;;;27.50;63.00;;;;;;5032212;28;20197;-43
2022/07/21 06:19:08;;;;;;;15.37;14.17;;;27.60;63.00;;;;;;5031446;28;20197;-43
2022/07/21 06:21:34;;;;;;;14.20;12.80;;;27.60;62.70;;;;;;5032289;28;20250;-45
2022/07/21 06:24:00;;;;;;;14.30;13.00;;;27.60;62.90;;;;;;5031198;28;20511;-47
2022/07/21 06:26:26;;;;;;;15.57;14.17;;;27.70;63.20;;;;;;5032135;28;20937;-47
2022/07/21 06:28:51;;;;;;;15.10;13.70;;;27.70;63.60;;;;;;5031280;28;20451;-47
2022/07/21 06:31:17;;;;;;;14.40;13.07;;;27.60;63.00;;;;;;5032019;28;20316;-47
2022/07/21 06:33:43;;;;;;;15.93;14.27;;;27.70;62.70;;;;;;5030793;28;20189;-47
2022/07/21 06:36:09;;;;;;;14.10;12.83;;;27.70;63.10;;;;;;5031712;28;20291;-47
2022/07/21 06:38:35;;;;;;;13.40;12.30;;;27.70;63.60;;;;;;5029259;28;20208;-48
2022/07/21 06:41:01;;;;;;;14.23;13.13;;;27.70;63.80;;;;;;5031799;28;20424;-47
2022/07/21 06:43:26;;;;;;;14.73;13.50;;;27.80;63.70;;;;;;5030800;28;20428;-47
2022/07/21 06:45:52;;;;;;;14.30;13.00;;;27.80;62.50;;;;;;5024280;28;20200;-48
2022/07/21 06:48:18;;;;;;;14.30;13.00;;;27.80;62.50;;;;;;5031045;28;20633;-47
2022/07/21 06:50:43;;;;;;;13.93;12.53;;;27.80;62.40;;;;;;5031777;28;20220;-48
2022/07/21 06:53:09;;;;;;;14.23;13.03;;;27.90;63.30;;;;;;5030696;28;20189;-44
2022/07/21 06:55:36;;;;;;;12.93;11.57;;;27.90;63.20;;;;;;5031217;28;20359;-43
2022/07/21 06:58:16;;;;;;;13.67;12.37;;;27.80;63.30;;;;;;5030912;28;20205;-47
2022/07/21 07:00:43;;;;;;;12.37;11.27;;;27.90;61.90;;;;;;5031396;28;20766;-44
2022/07/21 07:03:09;;;;;;;14.20;12.80;;;27.90;61.10;;;;;;5030253;28;20514;-47
2022/07/21 07:05:35;;;;;;;13.13;12.13;;;27.80;60.10;;;;;;5029712;28;20514;-44
2022/07/21 07:08:01;;;;;;;14.17;12.70;;;27.80;60.00;;;;;;5030820;28;20637;-44
2022/07/21 07:10:27;;;;;;;13.80;12.70;;;27.90;59.80;;;;;;5031129;28;20430;-44
2022/07/21 07:12:52;;;;;;;14.53;13.13;;;27.90;60.40;;;;;;5028766;28;21224;-44
2022/07/21 07:15:18;;;;;;;14.53;13.20;;;27.80;59.80;;;;;;5031497;28;20222;-44
2022/07/21 07:17:44;;;;;;;14.20;12.90;;;27.90;60.80;;;;;;5030596;28;20201;-43
2022/07/21 07:20:10;;;;;;;14.03;12.70;;;28.00;60.30;;;;;;5031113;28;20590;-43
2022/07/21 07:22:36;;;;;;;17.40;14.60;;;28.10;59.20;;;;;;5029878;28;20248;-43
2022/07/21 07:25:02;;;;;;;12.83;11.73;;;27.80;59.80;;;;;;5031113;28;20519;-48
2022/07/21 07:27:27;;;;;;;14.07;12.97;;;27.30;61.40;;;;;;5030703;28;20196;-44
2022/07/21 07:29:53;;;;;;;13.33;12.10;;;27.50;63.00;;;;;;5030400;28;20193;-48
2022/07/21 07:32:19;;;;;;;13.80;12.70;;;27.70;61.90;;;;;;5028816;28;20683;-43
2022/07/21 07:34:44;;;;;;;12.60;11.40;;;28.00;61.30;;;;;;5030065;28;20229;-46
2022/07/21 07:37:10;;;;;;;13.20;11.90;;;28.30;61.40;;;;;;5030780;28;20271;-43
2022/07/21 07:39:37;;;;;;;12.97;11.87;;;28.70;59.10;;;;;;5030477;28;20364;-47
2022/07/21 07:42:04;;;;;;;13.90;12.80;;;28.90;57.50;;;;;;5030485;28;20193;-44
2022/07/21 07:44:30;;;;;;;13.37;12.27;;;29.00;56.80;;;;;;5026661;28;20843;-43
2022/07/21 07:46:56;;;;;;;12.60;11.40;;;29.00;56.10;;;;;;5027189;28;20788;-43
2022/07/21 07:49:21;;;;;;;13.17;12.07;;;29.00;55.90;;;;;;5030004;28;20429;-44
2022/07/21 07:51:48;;;;;;;15.10;13.70;;;28.80;56.50;;;;;;5030417;28;20824;-47
2022/07/21 07:54:14;;;;;;;14.43;13.03;;;28.40;57.00;;;;;;5029553;28;20699;-44
2022/07/21 07:56:40;;;;;;;12.67;11.63;;;28.20;57.10;;;;;;5030406;28;20480;-45
2022/07/21 07:59:05;;;;;;;12.33;11.23;;;28.00;57.30;;;;;;5028575;28;20565;-47
2022/07/21 08:01:31;;;;;;;13.23;12.03;;;28.20;57.90;;;;;;5030339;28;20508;-45
2022/07/21 08:03:57;;;;;;;13.13;11.60;;;28.40;57.10;;;;;;5029592;28;20200;-44
2022/07/21 08:06:22;;;;;;;13.80;12.70;;;28.30;56.90;;;;;;5030470;28;20208;-44
2022/07/21 08:08:48;;;;;;;11.87;10.70;;;28.50;56.60;;;;;;5029789;28;20197;-44
2022/07/21 08:11:15;;;;;;;12.27;11.27;;;28.70;57.50;;;;;;5030257;28;20272;-47
2022/07/21 08:13:41;;;;;;;12.60;11.37;;;29.00;57.30;;;;;;5029386;28;20416;-44
2022/07/21 08:16:07;;;;;;;11.43;10.50;;;29.10;56.90;;;;;;5030139;28;20537;-46
2022/07/21 08:18:33;;;;;;;12.00;11.10;;;29.30;56.10;;;;;;5030133;28;20249;-44
2022/07/21 08:20:59;;;;;;;11.93;10.90;;;29.40;54.20;;;;;;5030356;28;20424;-44
2022/07/21 08:23:24;;;;;;;12.07;10.80;;;29.50;53.20;;;;;;5029469;28;20435;-47
2022/07/21 08:25:50;;;;;;;11.73;10.53;;;29.70;52.80;;;;;;5028591;28;20254;-45
2022/07/21 08:28:16;;;;;;;9.50;8.70;;;29.70;51.40;;;;;;5029654;28;20197;-44
2022/07/21 08:30:42;;;;;;;8.70;7.77;;;29.50;51.00;;;;;;5031092;28;20301;-44
2022/07/21 08:33:07;;;;;;;9.47;8.57;;;29.70;50.40;;;;;;5033448;28;20204;-45
2022/07/21 08:35:34;;;;;;;11.10;10.10;;;29.70;50.60;;;;;;5033620;28;20224;-44
2022/07/21 08:38:05;;;;;;;10.10;9.30;;;29.80;50.70;;;;;;5033533;28;20232;-44
2022/07/21 08:40:34;;;;;;;11.00;10.10;;;29.90;51.10;;;;;;5034429;28;20440;-47
2022/07/21 08:43:01;;;;;;;9.70;8.90;;;30.10;50.10;;;;;;5033237;28;20436;-47
2022/07/21 08:45:27;;;;;;;10.87;9.80;;;30.20;50.70;;;;;;5026863;28;21103;-44
2022/07/21 08:47:55;;;;;;;9.80;9.10;;;30.30;48.70;;;;;;5033332;28;20486;-43
2022/07/21 08:50:28;;;;;;;9.60;8.90;;;30.50;48.90;;;;;;5032557;28;20801;-44
2022/07/21 08:52:54;;;;;;;10.00;9.00;;;30.60;48.80;;;;;;5031459;28;20520;-45
2022/07/21 08:55:19;;;;;;;8.60;7.90;;;30.20;49.50;;;;;;5033434;28;20575;-44
2022/07/21 08:57:45;;;;;;;8.97;8.13;;;30.30;50.00;;;;;;5033288;28;20701;-48
2022/07/21 09:00:11;;;;;;;8.40;7.60;;;30.40;50.60;;;;;;5033715;28;20921;-44
2022/07/21 09:02:38;;;;;;;8.23;7.53;;;30.40;48.60;;;;;;5032679;28;20572;-44
2022/07/21 09:05:05;;;;;;;9.40;8.43;;;30.30;48.70;;;;;;5033633;28;20474;-44
2022/07/21 09:07:47;;;;;;;8.63;7.93;;;30.40;49.20;;;;;;5033254;28;20436;-44
2022/07/21 09:10:13;;;;;;;8.90;8.10;;;30.40;48.90;;;;;;5033611;28;20467;-43
2022/07/21 09:12:53;;;;;;;9.33;8.43;;;30.40;49.30;;;;;;5032833;28;20451;-44
2022/07/21 09:15:21;;;;;;;9.70;8.90;;;30.50;49.10;;;;;;5033566;28;20263;-44
2022/07/21 09:18:03;;;;;;;11.27;9.37;;;30.50;49.40;;;;;;5032748;28;20427;-43
2022/07/21 09:20:29;;;;;;;8.67;8.03;;;30.50;50.00;;;;;;5031909;28;20439;-44
2022/07/21 09:23:11;;;;;;;8.67;7.87;;;30.50;48.80;;;;;;5032495;28;21287;-43
2022/07/21 09:25:42;;;;;;;8.60;7.80;;;30.60;47.60;;;;;;5033205;28;20288;-44
2022/07/21 09:28:21;;;;;;;8.60;8.00;;;30.60;48.00;;;;;;5032948;28;20765;-45
2022/07/21 09:30:50;;;;;;;7.60;7.00;;;30.70;48.70;;;;;;5033290;28;20435;-45
2022/07/21 09:33:23;;;;;;;9.60;8.70;;;30.90;47.80;;;;;;5032262;28;20764;-44
2022/07/21 09:36:02;;;;;;;9.03;8.30;;;31.00;46.70;;;;;;5032616;28;20479;-45
2022/07/21 09:38:31;;;;;;;8.60;7.70;;;31.20;47.90;;;;;;5032597;28;20440;-43
2022/07/21 09:41:12;;;;;;;8.30;7.60;;;31.50;47.50;;;;;;5033191;28;20427;-45
2022/07/21 09:43:41;;;;;;;8.60;7.80;;;31.60;45.10;;;;;;5031955;28;20424;-45
2022/07/21 09:46:19;;;;;;;7.70;7.20;;;31.90;44.10;;;;;;5024743;28;20582;-44
2022/07/21 09:48:47;;;;;;;8.70;8.00;;;32.10;43.00;;;;;;5032262;28;20525;-44
2022/07/21 09:51:19;;;;;;;10.40;8.43;;;32.10;42.80;;;;;;5032973;28;20428;-44
2022/07/21 09:54:06;;;;;;;8.57;7.87;;;32.20;43.20;;;;;;5031689;28;20527;-44
2022/07/21 09:56:39;;;;;;;7.87;7.17;;;32.30;43.40;;;;;;5032779;28;20484;-47
2022/07/21 09:59:06;;;;;;;8.87;8.03;;;32.40;43.30;;;;;;5032142;28;20428;-44
2022/07/21 10:01:32;;;;;;;9.33;8.30;;;32.20;42.10;;;;;;5032664;28;20466;-44
2022/07/21 10:03:59;;;;;;;9.23;7.20;;;32.30;42.50;;;;;;5031645;28;20843;-44
2022/07/21 10:06:33;;;;;;;8.63;7.93;;;32.50;43.20;;;;;;5032714;28;20201;-46
2022/07/21 10:09:01;;;;;;;7.73;6.87;;;32.60;43.20;;;;;;5032190;28;20827;-44
2022/07/21 10:11:27;;;;;;;8.70;8.00;;;32.80;43.60;;;;;;5032303;28;20432;-47
2022/07/21 10:13:53;;;;;;;7.27;6.67;;;32.90;43.20;;;;;;5029989;28;20780;-44
2022/07/21 10:16:19;;;;;;;6.50;5.90;;;32.70;41.10;;;;;;5032411;28;20880;-46
2022/07/21 10:19:15;;;;;;;6.20;5.70;;;32.50;39.50;;;;;;5031848;28;20482;-44
2022/07/21 10:21:56;;;;;;;8.30;7.60;;;32.60;41.90;;;;;;5032052;28;20189;-44
2022/07/21 10:24:22;;;;;;;8.00;7.30;;;33.00;42.00;;;;;;5031753;28;20447;-45
2022/07/21 10:27:07;;;;;;;7.90;7.27;;;33.30;41.40;;;;;;5032375;28;20784;-44
2022/07/21 10:29:48;;;;;;;6.47;5.97;;;33.50;41.10;;;;;;5031823;28;20965;-44
2022/07/21 10:32:16;;;;;;;6.73;6.13;;;33.70;38.70;;;;;;5031453;28;20432;-44
2022/07/21 10:34:42;;;;;;;6.23;5.83;;;33.90;39.00;;;;;;5031493;28;20539;-45
2022/07/21 10:37:09;;;;;;;5.47;5.13;;;34.00;37.40;;;;;;5031766;28;20503;-44
2022/07/21 10:39:35;;;;;;;6.57;6.07;;;33.90;35.10;;;;;;5031574;28;20518;-44
2022/07/21 10:42:16;;;;;;;6.67;5.50;;;34.10;36.20;;;;;;5029665;28;20435;-44
2022/07/21 10:44:46;;;;;;;7.50;6.90;;;33.90;36.40;;;;;;5026359;28;20441;-45
2022/07/21 10:47:25;;;;;;;6.77;6.27;;;34.00;37.70;;;;;;5030544;28;20459;-45
2022/07/21 10:49:59;;;;;;;7.20;6.50;;;34.10;38.40;;;;;;5031010;28;20431;-44
2022/07/21 10:52:34;;;;;;;7.80;7.20;;;34.20;39.90;;;;;;5031276;28;20857;-44
2022/07/21 10:55:38;;;;;;;7.00;6.37;;;34.20;39.70;;;;;;5031015;28;20471;-44
2022/07/21 10:58:26;;;;;;;7.23;6.27;;;34.30;39.70;;;;;;5030198;28;20446;-44
2022/07/21 11:00:58;;;;;;;6.60;6.00;;;34.30;38.50;;;;;;5031526;28;20808;-44
2022/07/21 11:03:29;;;;;;;7.07;6.57;;;34.60;37.80;;;;;;5030796;28;20473;-44
2022/07/21 11:06:14;;;;;;;6.57;6.03;;;34.70;38.90;;;;;;5031437;28;20973;-44
2022/07/21 11:08:43;;;;;;;6.10;5.60;;;35.00;38.70;;;;;;5029428;28;20432;-45
2022/07/21 11:11:26;;;;;;;7.03;6.53;;;35.20;37.50;;;;;;5031495;28;20478;-44
2022/07/21 11:14:13;;;;;;;8.10;6.10;;;35.30;37.60;;;;;;5030526;28;20999;-44
2022/07/21 11:16:41;;;;;;;6.83;5.60;;;35.50;37.70;;;;;;5031321;28;20491;-44
2022/07/21 11:19:42;;;;;;;6.73;6.23;;;35.50;37.70;;;;;;5030596;28;20914;-44
2022/07/21 11:22:24;;;;;;;7.00;6.30;;;35.80;37.60;;;;;;5030984;28;20446;-44
2022/07/21 11:24:59;;;;;;;6.97;6.37;;;35.90;34.90;;;;;;5030584;28;20431;-45
2022/07/21 11:27:27;;;;;;;6.63;6.10;;;36.10;35.70;;;;;;5031037;28;20448;-48
2022/07/21 11:29:56;;;;;;;6.40;5.87;;;36.30;34.80;;;;;;5030585;28;20420;-44
2022/07/21 11:32:23;;;;;;;6.40;5.90;;;36.30;34.30;;;;;;5030721;28;20474;-45
2022/07/21 11:34:51;;;;;;;6.93;6.43;;;36.40;34.50;;;;;;5028854;28;20475;-44
2022/07/21 11:37:38;;;;;;;7.07;6.57;;;36.50;33.80;;;;;;5030493;28;20537;-45
2022/07/21 11:40:11;;;;;;;7.30;6.80;;;36.50;34.30;;;;;;5030620;28;20539;-45
2022/07/21 11:42:38;;;;;;;5.83;5.43;;;36.40;34.00;;;;;;5030096;28;20836;-45
2022/07/21 11:45:05;;;;;;;6.30;5.80;;;36.40;33.60;;;;;;5023206;28;20464;-44
2022/07/21 11:47:31;;;;;;;7.00;6.40;;;36.40;33.50;;;;;;5030565;28;20428;-45
2022/07/21 11:50:02;;;;;;;6.03;5.53;;;36.30;32.40;;;;;;5030142;28;21064;-45
2022/07/21 11:52:33;;;;;;;6.43;5.83;;;36.40;33.30;;;;;;5030404;28;20189;-45
2022/07/21 11:55:01;;;;;;;6.80;6.30;;;36.20;32.50;;;;;;5030440;28;20468;-46
2022/07/21 11:57:27;;;;;;;7.03;6.50;;;35.60;32.90;;;;;;5031063;28;20413;-44
2022/07/21 11:59:55;;;;;;;6.33;5.77;;;35.50;34.80;;;;;;5030104;28;20524;-44
2022/07/21 12:02:29;;;;;;;6.07;5.20;;;35.80;34.80;;;;;;5028751;28;20456;-46
2022/07/21 12:05:00;;;;;;;5.90;5.40;;;36.10;32.60;;;;;;5029439;28;20439;-46
2022/07/21 12:07:52;;;;;;;5.37;4.97;;;36.30;31.20;;;;;;5030599;28;20953;-44
2022/07/21 12:10:26;;;;;;;6.80;6.30;;;36.30;31.80;;;;;;5030699;28;20451;-44
2022/07/21 12:12:56;;;;;;;4.67;4.37;;;36.40;32.00;;;;;;5029655;28;20444;-44
2022/07/21 12:15:31;;;;;;;5.43;5.03;;;36.40;32.10;;;;;;5030419;28;20662;-44
2022/07/21 12:18:00;;;;;;;5.60;5.10;;;36.30;32.20;;;;;;5030001;28;20533;-44
2022/07/21 12:20:27;;;;;;;5.70;5.23;;;36.20;31.90;;;;;;5030466;28;21050;-44
2022/07/21 12:22:54;;;;;;;5.37;4.83;;;35.80;31.60;;;;;;5029546;28;21001;-44
2022/07/21 12:25:31;;;;;;;6.50;4.70;;;35.70;32.10;;;;;;5030167;28;20423;-44
2022/07/21 12:27:57;;;;;;;5.70;5.30;;;35.40;32.20;;;;;;5028141;28;20523;-45
2022/07/21 12:30:33;;;;;;;5.40;4.80;;;35.20;31.70;;;;;;5030581;28;21077;-44
2022/07/21 12:33:05;;;;;;;5.63;5.10;;;35.20;31.40;;;;;;5029282;28;20227;-44
2022/07/21 12:35:32;;;;;;;7.60;4.90;;;35.20;31.40;;;;;;5030295;28;20946;-44
2022/07/21 12:38:07;;;;;;;5.20;4.90;;;35.20;31.20;;;;;;5029532;28;20470;-44
2022/07/21 12:40:35;;;;;;;5.20;4.70;;;35.10;31.00;;;;;;5030150;28;20443;-45